Time,TemperatureF,DewpointF,PressureIn,WindDirection,WindDirectionDegrees,WindSpeedMPH,WindSpeedGustMPH,Humidity,HourlyPrecipIn,Conditions,Clouds,dailyrainin,SoftwareType,DateUTC
2013-03-05 00:00:00,34.0,15.4,30.04,NW,315,2.0,9.0,46,0.00,,,0.00,Wunderground v.1.15,2013-03-05 05:00:00,
2013-03-05 00:01:00,34.0,15.4,30.04,NW,310,2.0,3.0,46,0.00,,,0.00,Wunderground v.1.15,2013-03-05 05:01:00,
2013-03-05 00:06:00,34.1,15.9,30.04,WNW,293,2.0,4.0,47,0.00,,,0.00,Wunderground v.1.15,2013-03-05 05:06:00,
2013-03-05 00:11:00,34.1,15.5,30.04,WNW,293,2.0,3.0,46,0.00,,,0.00,Wunderground v.1.15,2013-03-05 05:11:00,
2013-03-05 00:16:00,34.1,15.9,30.04,WNW,301,3.0,4.0,47,0.00,,,0.00,Wunderground v.1.15,2013-03-05 05:16:00,
2013-03-05 00:21:00,34.1,15.5,30.04,West,279,1.0,3.0,46,0.00,,,0.00,Wunderground v.1.15,2013-03-05 05:21:00,
2013-03-05 00:26:00,34.0,15.4,30.04,West,268,3.0,3.0,46,0.00,,,0.00,Wunderground v.1.15,2013-03-05 05:26:00,
2013-03-05 00:30:00,32.8,17.1,30.03,NW,315,0.0,3.0,52,0.00,,---,0.00,VWS V14.01,2013-03-05 05:30:00,
2013-03-05 00:31:00,34.1,15.5,30.04,WNW,286,1.0,4.0,46,0.00,,,0.00,Wunderground v.1.15,2013-03-05 05:31:00,
2013-03-05 00:36:00,34.1,15.5,30.04,WNW,296,1.0,4.0,46,0.00,,,0.00,Wunderground v.1.15,2013-03-05 05:36:00,
2013-03-05 00:41:00,34.0,15.4,30.04,West,275,3.0,3.0,46,0.00,,,0.00,Wunderground v.1.15,2013-03-05 05:41:00,
2013-03-05 00:46:00,34.0,15.4,30.04,WNW,288,2.0,3.0,46,0.00,,,0.00,Wunderground v.1.15,2013-03-05 05:46:00,
2013-03-05 00:51:00,34.0,15.4,30.04,West,276,3.0,3.0,46,0.00,,,0.00,Wunderground v.1.15,2013-03-05 05:51:00,
2013-03-05 00:56:00,34.0,15.9,30.04,West,275,3.0,3.0,47,0.00,,,0.00,Wunderground v.1.15,2013-03-05 05:56:00,
2013-03-05 01:00:00,31.6,16.5,30.03,NW,315,0.0,4.0,53,0.00,,---,0.00,VWS V14.01,2013-03-05 06:00:00,
2013-03-05 01:02:00,33.8,15.2,30.04,WNW,290,0.0,2.0,46,0.00,,,0.00,Wunderground v.1.15,2013-03-05 06:02:00,
2013-03-05 01:07:00,33.7,16.1,30.04,NW,304,0.0,2.0,48,0.00,,,0.00,Wunderground v.1.15,2013-03-05 06:07:00,
2013-03-05 01:12:00,33.5,15.9,30.03,NW,304,0.0,0.0,48,0.00,,,0.00,Wunderground v.1.15,2013-03-05 06:12:00,
2013-03-05 01:17:00,33.4,16.3,30.03,NW,304,1.0,1.0,49,0.00,,,0.00,Wunderground v.1.15,2013-03-05 06:17:00,
2013-03-05 01:22:00,33.1,15.5,30.03,NW,304,0.0,1.0,48,0.00,,,0.00,Wunderground v.1.15,2013-03-05 06:22:00,
2013-03-05 01:27:00,32.9,16.7,30.03,NW,304,1.0,1.0,51,0.00,,,0.00,Wunderground v.1.15,2013-03-05 06:27:00,
2013-03-05 01:30:00,31.2,17.3,30.04,WNW,292,1.0,3.0,56,0.00,,---,0.00,VWS V14.01,2013-03-05 06:30:00,
2013-03-05 01:32:00,32.7,17.4,30.03,NW,304,0.0,1.0,53,0.00,,,0.00,Wunderground v.1.15,2013-03-05 06:32:00,
2013-03-05 01:37:00,32.4,16.7,30.03,NW,304,0.0,1.0,52,0.00,,,0.00,Wunderground v.1.15,2013-03-05 06:37:00,
2013-03-05 01:42:00,32.2,17.4,30.03,NW,304,0.0,1.0,54,0.00,,,0.00,Wunderground v.1.15,2013-03-05 06:42:00,
2013-03-05 01:47:00,31.9,17.5,30.03,NW,304,0.0,1.0,55,0.00,,,0.00,Wunderground v.1.15,2013-03-05 06:47:00,
2013-03-05 01:52:00,31.8,17.0,30.03,NW,304,0.0,0.0,54,0.00,,,0.00,Wunderground v.1.15,2013-03-05 06:52:00,
2013-03-05 01:57:00,31.6,17.3,30.03,NW,304,0.0,0.0,55,0.00,,,0.00,Wunderground v.1.15,2013-03-05 06:57:00,
2013-03-05 02:00:00,32.8,16.2,30.04,West,270,1.0,4.0,50,0.00,,---,0.00,VWS V14.01,2013-03-05 07:00:00,
2013-03-05 02:02:00,31.6,16.8,30.04,WNW,291,0.0,1.0,54,0.00,,,0.00,Wunderground v.1.15,2013-03-05 07:02:00,
2013-03-05 02:07:00,31.5,16.7,30.04,WNW,291,1.0,1.0,54,0.00,,,0.00,Wunderground v.1.15,2013-03-05 07:07:00,
2013-03-05 02:12:00,31.5,16.7,30.04,WNW,291,0.0,2.0,54,0.00,,,0.00,Wunderground v.1.15,2013-03-05 07:12:00,
2013-03-05 02:17:00,31.3,17.0,30.04,WNW,291,0.0,2.0,55,0.00,,,0.00,Wunderground v.1.15,2013-03-05 07:17:00,
2013-03-05 02:22:00,31.3,17.0,30.04,WNW,291,2.0,2.0,55,0.00,,,0.00,Wunderground v.1.15,2013-03-05 07:22:00,
2013-03-05 02:28:00,31.3,17.8,30.04,WNW,291,1.0,2.0,57,0.00,,,0.00,Wunderground v.1.15,2013-03-05 07:28:00,
2013-03-05 02:30:00,33.7,16.1,30.04,WNW,292,2.0,7.0,48,0.00,,---,0.00,VWS V14.01,2013-03-05 07:30:00,
2013-03-05 02:33:00,31.2,17.7,30.04,SW,223,2.0,3.0,57,0.00,,,0.00,Wunderground v.1.15,2013-03-05 07:33:00,
2013-03-05 02:38:00,31.5,15.9,30.04,SW,219,3.0,3.0,52,0.00,,,0.00,Wunderground v.1.15,2013-03-05 07:38:00,
2013-03-05 02:43:00,31.9,15.3,30.04,West,267,2.0,3.0,50,0.00,,,0.00,Wunderground v.1.15,2013-03-05 07:43:00,
2013-03-05 02:48:00,32.5,16.4,30.04,West,267,0.0,4.0,51,0.00,,,0.00,Wunderground v.1.15,2013-03-05 07:48:00,
2013-03-05 02:53:00,32.7,16.1,30.04,SSW,207,1.0,2.0,50,0.00,,,0.00,Wunderground v.1.15,2013-03-05 07:53:00,
2013-03-05 02:58:00,32.8,16.2,30.04,NW,311,2.0,2.0,50,0.00,,,0.00,Wunderground v.1.15,2013-03-05 07:58:00,
2013-03-05 03:00:00,33.5,17.3,30.04,WNW,292,1.0,6.0,51,0.00,,---,0.00,VWS V14.01,2013-03-05 08:00:00,
2013-03-05 03:03:00,32.8,16.6,30.04,WNW,291,2.0,4.0,51,0.00,,,0.00,Wunderground v.1.15,2013-03-05 08:03:00,
2013-03-05 03:08:00,32.7,16.5,30.04,WNW,287,1.0,4.0,51,0.00,,,0.00,Wunderground v.1.15,2013-03-05 08:08:00,
2013-03-05 03:13:00,32.7,15.6,30.04,SSW,209,5.0,5.0,49,0.00,,,0.00,Wunderground v.1.15,2013-03-05 08:13:00,
2013-03-05 03:19:00,33.1,15.0,30.04,WNW,287,1.0,5.0,47,0.00,,,0.00,Wunderground v.1.15,2013-03-05 08:19:00,
2013-03-05 03:24:00,33.4,15.8,30.04,WNW,286,2.0,2.0,48,0.00,,,0.00,Wunderground v.1.15,2013-03-05 08:24:00,
2013-03-05 03:29:00,33.5,15.9,30.04,West,273,3.0,7.0,48,0.00,,,0.00,Wunderground v.1.15,2013-03-05 08:29:00,
2013-03-05 03:30:00,32.5,17.7,30.03,SW,225,0.0,2.0,54,0.00,,---,0.00,VWS V14.01,2013-03-05 08:30:00,
2013-03-05 03:34:00,33.8,15.2,30.04,WNW,298,1.0,6.0,46,0.00,,,0.00,Wunderground v.1.15,2013-03-05 08:34:00,
2013-03-05 03:39:00,34.0,15.9,30.04,WNW,286,0.0,6.0,47,0.00,,,0.00,Wunderground v.1.15,2013-03-05 08:39:00,
2013-03-05 03:45:00,33.8,16.2,30.04,WNW,286,0.0,1.0,48,0.00,,,0.00,Wunderground v.1.15,2013-03-05 08:45:00,
2013-03-05 03:50:00,33.8,15.7,30.04,WNW,284,1.0,1.0,47,0.00,,,0.00,Wunderground v.1.15,2013-03-05 08:50:00,
2013-03-05 03:55:00,33.7,17.0,30.04,West,279,1.0,2.0,50,0.00,,,0.00,Wunderground v.1.15,2013-03-05 08:55:00,
2013-03-05 04:00:00,33.5,17.3,30.04,WSW,246,0.0,1.0,51,0.00,,,0.00,Wunderground v.1.15,2013-03-05 09:00:00,
2013-03-05 04:05:00,33.4,17.6,30.04,WSW,246,0.0,1.0,52,0.00,,,0.00,Wunderground v.1.15,2013-03-05 09:05:00,
2013-03-05 04:10:00,33.1,17.4,30.04,SW,221,0.0,0.0,52,0.00,,,0.00,Wunderground v.1.15,2013-03-05 09:10:00,
2013-03-05 04:16:00,32.9,16.7,30.04,SW,221,1.0,1.0,51,0.00,,,0.00,Wunderground v.1.15,2013-03-05 09:16:00,
2013-03-05 04:21:00,32.8,17.1,30.04,SW,221,0.0,0.0,52,0.00,,,0.00,Wunderground v.1.15,2013-03-05 09:21:00,
2013-03-05 04:26:00,32.7,17.9,30.04,SW,221,0.0,0.0,54,0.00,,,0.00,Wunderground v.1.15,2013-03-05 09:26:00,
2013-03-05 04:30:00,32.5,18.6,30.04,West,270,1.0,2.0,56,0.00,,---,0.00,VWS V14.01,2013-03-05 09:30:00,
2013-03-05 04:31:00,32.5,17.7,30.03,SW,221,1.0,1.0,54,0.00,,,0.00,Wunderground v.1.15,2013-03-05 09:31:00,
2013-03-05 04:36:00,32.5,16.8,30.04,West,274,1.0,3.0,52,0.00,,,0.00,Wunderground v.1.15,2013-03-05 09:36:00,
2013-03-05 04:41:00,32.5,17.2,30.04,West,274,1.0,2.0,53,0.00,,,0.00,Wunderground v.1.15,2013-03-05 09:41:00,
2013-03-05 04:46:00,32.5,17.2,30.04,West,274,1.0,2.0,53,0.00,,,0.00,Wunderground v.1.15,2013-03-05 09:46:00,
2013-03-05 04:52:00,32.5,17.7,30.03,West,274,1.0,1.0,54,0.00,,,0.00,Wunderground v.1.15,2013-03-05 09:52:00,
2013-03-05 04:57:00,32.5,17.2,30.03,West,274,1.0,2.0,53,0.00,,,0.00,Wunderground v.1.15,2013-03-05 09:57:00,
2013-03-05 05:00:00,32.2,18.3,30.05,NNW,338,1.0,2.0,56,0.00,,---,0.00,VWS V14.01,2013-03-05 10:00:00,
2013-03-05 05:02:00,32.7,17.0,30.04,West,274,1.0,2.0,52,0.00,,,0.00,Wunderground v.1.15,2013-03-05 10:02:00,
2013-03-05 05:07:00,32.7,17.0,30.04,West,274,0.0,2.0,52,0.00,,,0.00,Wunderground v.1.15,2013-03-05 10:07:00,
2013-03-05 05:12:00,32.8,17.1,30.04,West,274,0.0,1.0,52,0.00,,,0.00,Wunderground v.1.15,2013-03-05 10:12:00,
2013-03-05 05:17:00,32.7,17.9,30.03,West,274,0.0,1.0,54,0.00,,,0.00,Wunderground v.1.15,2013-03-05 10:17:00,
2013-03-05 05:22:00,32.7,18.7,30.04,West,274,1.0,1.0,56,0.00,,,0.00,Wunderground v.1.15,2013-03-05 10:22:00,
2013-03-05 05:27:00,32.5,18.9,30.04,West,274,1.0,1.0,57,0.00,,,0.00,Wunderground v.1.15,2013-03-05 10:27:00,
2013-03-05 05:30:00,31.8,19.5,30.05,NNW,338,0.0,1.0,60,0.00,,---,0.00,VWS V14.01,2013-03-05 10:30:00,
2013-03-05 05:32:00,32.5,18.1,30.04,NNW,336,0.0,2.0,55,0.00,,,0.00,Wunderground v.1.15,2013-03-05 10:32:00,
2013-03-05 05:37:00,32.4,17.6,30.04,NNW,336,0.0,2.0,54,0.00,,,0.00,Wunderground v.1.15,2013-03-05 10:37:00,
2013-03-05 05:42:00,32.4,18.0,30.04,NNW,336,1.0,1.0,55,0.00,,,0.00,Wunderground v.1.15,2013-03-05 10:42:00,
2013-03-05 05:47:00,32.4,18.4,30.05,NNW,336,2.0,2.0,56,0.00,,,0.00,Wunderground v.1.15,2013-03-05 10:47:00,
2013-03-05 05:52:00,32.2,18.2,30.05,NNW,336,0.0,1.0,56,0.00,,,0.00,Wunderground v.1.15,2013-03-05 10:52:00,
2013-03-05 05:57:00,32.2,18.7,30.05,NNW,336,0.0,1.0,57,0.00,,,0.00,Wunderground v.1.15,2013-03-05 10:57:00,
2013-03-05 06:00:00,31.6,19.7,30.05,NNW,338,0.0,1.0,61,0.00,,---,0.00,VWS V14.01,2013-03-05 11:00:00,
2013-03-05 06:02:00,32.2,19.1,30.05,NNW,336,0.0,1.0,58,0.00,,,0.00,Wunderground v.1.15,2013-03-05 11:02:00,
2013-03-05 06:07:00,32.1,19.4,30.05,NNW,336,0.0,1.0,59,0.00,,,0.00,Wunderground v.1.15,2013-03-05 11:07:00,
2013-03-05 06:12:00,31.9,18.8,30.05,NNW,336,0.0,0.0,58,0.00,,,0.00,Wunderground v.1.15,2013-03-05 11:12:00,
2013-03-05 06:17:00,31.9,19.2,30.05,NNW,336,0.0,0.0,59,0.00,,,0.00,Wunderground v.1.15,2013-03-05 11:17:00,
2013-03-05 06:22:00,31.8,19.1,30.05,NNW,336,1.0,1.0,59,0.00,,,0.00,Wunderground v.1.15,2013-03-05 11:22:00,
2013-03-05 06:27:00,31.8,19.1,30.05,NNW,336,0.0,1.0,59,0.00,,,0.00,Wunderground v.1.15,2013-03-05 11:27:00,
2013-03-05 06:30:00,32.4,18.5,30.05,ENE,68,1.0,4.0,56,0.00,,---,0.00,VWS V14.01,2013-03-05 11:30:00,
2013-03-05 06:32:00,31.6,19.3,30.05,NNW,336,0.0,1.0,60,0.00,,,0.00,Wunderground v.1.15,2013-03-05 11:32:00,
2013-03-05 06:37:00,31.6,19.3,30.05,NNW,336,0.0,1.0,60,0.00,,,0.00,Wunderground v.1.15,2013-03-05 11:37:00,
2013-03-05 06:42:00,31.6,19.7,30.05,NNW,336,1.0,1.0,61,0.00,,,0.00,Wunderground v.1.15,2013-03-05 11:42:00,
2013-03-05 06:47:00,31.6,19.7,30.05,NNW,336,0.0,1.0,61,0.00,,,0.00,Wunderground v.1.15,2013-03-05 11:47:00,
2013-03-05 06:53:00,31.5,19.2,30.05,NNW,336,1.0,1.0,60,0.00,,,0.00,Wunderground v.1.15,2013-03-05 11:53:00,
2013-03-05 06:58:00,31.6,19.3,30.05,NNW,336,1.0,1.0,60,0.00,,,0.00,Wunderground v.1.15,2013-03-05 11:58:00,
2013-03-05 07:00:00,33.5,19.1,30.05,SE,135,1.0,3.0,55,0.00,,---,0.00,VWS V14.01,2013-03-05 12:00:00,
2013-03-05 07:03:00,31.6,18.9,30.05,NNW,336,1.0,2.0,59,0.00,,,0.00,Wunderground v.1.15,2013-03-05 12:03:00,
2013-03-05 07:08:00,31.8,18.7,30.05,NNW,336,1.0,2.0,58,0.00,,,0.00,Wunderground v.1.15,2013-03-05 12:08:00,
2013-03-05 07:13:00,31.9,19.6,30.05,ESE,103,2.0,3.0,60,0.00,,,0.00,Wunderground v.1.15,2013-03-05 12:13:00,
2013-03-05 07:18:00,32.1,18.2,30.05,ENE,66,0.0,3.0,56,0.00,,,0.00,Wunderground v.1.15,2013-03-05 12:18:00,
2013-03-05 07:23:00,32.2,18.7,30.05,ENE,66,1.0,1.0,57,0.00,,,0.00,Wunderground v.1.15,2013-03-05 12:23:00,
2013-03-05 07:28:00,32.4,18.8,30.05,ENE,65,1.0,1.0,57,0.00,,,0.00,Wunderground v.1.15,2013-03-05 12:28:00,
2013-03-05 07:30:00,34.7,18.9,30.05,SE,135,1.0,2.0,52,0.00,,---,0.00,VWS V14.01,2013-03-05 12:30:00,
2013-03-05 07:33:00,32.5,18.1,30.06,ENE,66,0.0,1.0,55,0.00,,,0.00,Wunderground v.1.15,2013-03-05 12:33:00,
2013-03-05 07:38:00,32.7,17.9,30.05,ENE,65,0.0,1.0,54,0.00,,,0.00,Wunderground v.1.15,2013-03-05 12:38:00,
2013-03-05 07:43:00,32.9,18.5,30.05,ENE,65,0.0,0.0,55,0.00,,,0.00,Wunderground v.1.15,2013-03-05 12:43:00,
2013-03-05 07:48:00,33.2,19.2,30.05,SE,134,2.0,3.0,56,0.00,,,0.00,Wunderground v.1.15,2013-03-05 12:48:00,
2013-03-05 07:53:00,33.4,19.4,30.05,SE,134,1.0,2.0,56,0.00,,,0.00,Wunderground v.1.15,2013-03-05 12:53:00,
2013-03-05 07:58:00,33.5,19.0,30.05,SE,134,0.0,3.0,55,0.00,,,0.00,Wunderground v.1.15,2013-03-05 12:58:00,
2013-03-05 08:00:00,37.3,18.9,30.05,SE,135,1.0,4.0,47,0.00,,---,0.00,VWS V14.01,2013-03-05 13:00:00,
2013-03-05 08:03:00,33.7,19.7,30.06,SE,134,0.0,1.0,56,0.00,,,0.00,Wunderground v.1.15,2013-03-05 13:03:00,
2013-03-05 08:08:00,34.0,19.1,30.05,SE,134,1.0,1.0,54,0.00,,,0.00,Wunderground v.1.15,2013-03-05 13:08:00,
2013-03-05 08:14:00,34.1,17.8,30.05,SE,134,1.0,2.0,51,0.00,,,0.00,Wunderground v.1.15,2013-03-05 13:14:00,
2013-03-05 08:19:00,34.4,18.1,30.05,SE,134,1.0,2.0,51,0.00,,,0.00,Wunderground v.1.15,2013-03-05 13:19:00,
2013-03-05 08:24:00,34.6,18.3,30.05,SE,134,0.0,1.0,51,0.00,,,0.00,Wunderground v.1.15,2013-03-05 13:24:00,
2013-03-05 08:29:00,34.7,18.9,30.05,SE,134,2.0,2.0,52,0.00,,,0.00,Wunderground v.1.15,2013-03-05 13:29:00,
2013-03-05 08:30:00,39.6,18.4,30.04,NE,45,2.0,5.0,42,0.00,,---,0.00,VWS V14.01,2013-03-05 13:30:00,
2013-03-05 08:34:00,34.9,18.1,30.05,SE,134,0.0,2.0,50,0.00,,,0.00,Wunderground v.1.15,2013-03-05 13:34:00,
2013-03-05 08:39:00,35.2,18.4,30.05,ESE,123,1.0,3.0,50,0.00,,,0.00,Wunderground v.1.15,2013-03-05 13:39:00,
2013-03-05 08:44:00,35.8,19.9,30.05,South,183,1.0,3.0,52,0.00,,,0.00,Wunderground v.1.15,2013-03-05 13:44:00,
2013-03-05 08:49:00,36.2,18.9,30.05,SSE,150,2.0,4.0,49,0.00,,,0.00,Wunderground v.1.15,2013-03-05 13:49:00,
2013-03-05 08:54:00,36.9,19.5,30.05,SE,124,0.0,4.0,49,0.00,,,0.00,Wunderground v.1.15,2013-03-05 13:54:00,
2013-03-05 08:59:00,37.3,18.9,30.05,ESE,117,3.0,4.0,47,0.00,,,0.00,Wunderground v.1.15,2013-03-05 13:59:00,
2013-03-05 09:00:00,41.5,18.4,30.03,ENE,68,2.0,5.0,39,0.00,,---,0.00,VWS V14.01,2013-03-05 14:00:00,
2013-03-05 09:04:00,37.9,20.4,30.05,SSE,157,0.0,3.0,49,0.00,,,0.00,Wunderground v.1.15,2013-03-05 14:04:00,
2013-03-05 09:09:00,38.3,19.3,30.05,East,86,1.0,3.0,46,0.00,,,0.00,Wunderground v.1.15,2013-03-05 14:09:00,
2013-03-05 09:15:00,38.8,18.7,30.05,NE,49,3.0,4.0,44,0.00,,,0.00,Wunderground v.1.15,2013-03-05 14:15:00,
2013-03-05 09:20:00,39.2,18.0,30.05,NE,38,2.0,3.0,42,0.00,,,0.00,Wunderground v.1.15,2013-03-05 14:20:00,
2013-03-05 09:25:00,39.3,17.5,30.05,ENE,63,0.0,4.0,41,0.00,,,0.00,Wunderground v.1.15,2013-03-05 14:25:00,
2013-03-05 09:30:00,39.6,18.4,30.04,ENE,63,3.0,3.0,42,0.00,,,0.00,Wunderground v.1.15,2013-03-05 14:30:00,
2013-03-05 09:35:00,39.9,15.1,30.04,NNW,344,1.0,4.0,36,0.00,,,0.00,Wunderground v.1.15,2013-03-05 14:35:00,
2013-03-05 09:41:00,40.1,17.7,30.04,East,99,3.0,3.0,40,0.00,,,0.00,Wunderground v.1.15,2013-03-05 14:41:00,
2013-03-05 09:46:00,40.5,18.6,30.04,ESE,113,4.0,5.0,41,0.00,,,0.00,Wunderground v.1.15,2013-03-05 14:46:00,
2013-03-05 09:51:00,40.9,17.2,30.03,SE,132,3.0,4.0,38,0.00,,,0.00,Wunderground v.1.15,2013-03-05 14:51:00,
2013-03-05 09:56:00,41.2,18.1,30.03,ESE,108,2.0,4.0,39,0.00,,,0.00,Wunderground v.1.15,2013-03-05 14:56:00,
2013-03-05 10:00:00,43.6,15.7,30.02,WSW,248,2.0,6.0,32,0.00,,---,0.00,VWS V14.01,2013-03-05 15:00:00,
2013-03-05 10:01:00,41.6,18.4,30.03,East,92,2.0,3.0,39,0.00,,,0.00,Wunderground v.1.15,2013-03-05 15:01:00,
2013-03-05 10:07:00,42.1,20.1,30.03,SE,130,2.0,4.0,41,0.00,,,0.00,Wunderground v.1.15,2013-03-05 15:07:00,
2013-03-05 10:12:00,42.3,19.7,30.02,SE,130,2.0,2.0,40,0.00,,,0.00,Wunderground v.1.15,2013-03-05 15:12:00,
2013-03-05 10:17:00,42.5,16.1,30.02,SSW,201,0.0,2.0,34,0.00,,,0.00,Wunderground v.1.15,2013-03-05 15:17:00,
2013-03-05 10:22:00,42.5,14.7,30.01,ENE,73,2.0,2.0,32,0.00,,,0.00,Wunderground v.1.15,2013-03-05 15:22:00,
2013-03-05 10:28:00,42.5,17.4,30.01,East,85,1.0,3.0,36,0.00,,,0.00,Wunderground v.1.15,2013-03-05 15:28:00,
2013-03-05 10:30:00,45.2,13.2,30.00,NNW,338,2.0,5.0,27,0.00,,---,0.00,VWS V14.01,2013-03-05 15:30:00,
2013-03-05 10:33:00,42.6,16.2,30.01,SSE,154,1.0,2.0,34,0.00,,,0.00,Wunderground v.1.15,2013-03-05 15:33:00,
2013-03-05 10:38:00,42.9,14.3,30.01,West,275,2.0,4.0,31,0.00,,,0.00,Wunderground v.1.15,2013-03-05 15:38:00,
2013-03-05 10:43:00,43.1,13.7,30.01,SSE,167,2.0,3.0,30,0.00,,,0.00,Wunderground v.1.15,2013-03-05 15:43:00,
2013-03-05 10:48:00,43.2,16.0,30.01,SE,136,1.0,4.0,33,0.00,,,0.00,Wunderground v.1.15,2013-03-05 15:48:00,
2013-03-05 10:53:00,43.3,13.1,30.01,NNE,28,1.0,6.0,29,0.00,,,0.00,Wunderground v.1.15,2013-03-05 15:53:00,
2013-03-05 10:58:00,43.5,16.9,30.02,SSW,207,1.0,6.0,34,0.00,,,0.00,Wunderground v.1.15,2013-03-05 15:58:00,
2013-03-05 11:00:00,46.2,13.2,29.98,ENE,68,2.0,5.0,26,0.00,,---,0.00,VWS V14.01,2013-03-05 16:00:00,
2013-03-05 11:03:00,43.6,12.6,30.01,NNW,335,2.0,4.0,28,0.00,,,0.00,Wunderground v.1.15,2013-03-05 16:03:00,
2013-03-05 11:08:00,43.8,12.8,30.01,NNW,348,2.0,4.0,28,0.00,,,0.00,Wunderground v.1.15,2013-03-05 16:08:00,
2013-03-05 11:14:00,44.1,14.6,30.00,ENE,69,2.0,3.0,30,0.00,,,0.00,Wunderground v.1.15,2013-03-05 16:14:00,
2013-03-05 11:19:00,44.5,16.4,30.00,North,350,3.0,4.0,32,0.00,,,0.00,Wunderground v.1.15,2013-03-05 16:19:00,
2013-03-05 11:24:00,44.8,15.2,30.00,NNE,28,1.0,4.0,30,0.00,,,0.00,Wunderground v.1.15,2013-03-05 16:24:00,
2013-03-05 11:29:00,45.1,14.7,30.00,NE,36,1.0,4.0,29,0.00,,,0.00,Wunderground v.1.15,2013-03-05 16:29:00,
2013-03-05 11:30:00,47.3,16.7,29.96,NE,45,3.0,7.0,29,0.00,,---,0.00,VWS V14.01,2013-03-05 16:30:00,
2013-03-05 11:34:00,45.4,12.5,29.99,ENE,68,2.0,3.0,26,0.00,,,0.00,Wunderground v.1.15,2013-03-05 16:34:00,
2013-03-05 11:39:00,45.7,16.0,29.99,ESE,120,2.0,5.0,30,0.00,,,0.00,Wunderground v.1.15,2013-03-05 16:39:00,
2013-03-05 11:44:00,45.8,16.8,29.98,South,178,1.0,4.0,31,0.00,,,0.00,Wunderground v.1.15,2013-03-05 16:44:00,
2013-03-05 11:50:00,46.1,15.6,29.98,NE,53,4.0,5.0,29,0.00,,,0.00,Wunderground v.1.15,2013-03-05 16:50:00,
2013-03-05 11:55:00,46.1,14.8,29.98,NE,41,1.0,5.0,28,0.00,,,0.00,Wunderground v.1.15,2013-03-05 16:55:00,
2013-03-05 12:00:00,46.2,13.1,29.98,North,350,1.0,5.0,26,0.00,,,0.00,Wunderground v.1.15,2013-03-05 17:00:00,
2013-03-05 12:05:00,46.2,14.0,29.98,NNE,18,2.0,3.0,27,0.00,,,0.00,Wunderground v.1.15,2013-03-05 17:05:00,
2013-03-05 12:10:00,46.5,15.1,29.97,NE,53,2.0,6.0,28,0.00,,,0.00,Wunderground v.1.15,2013-03-05 17:10:00,
2013-03-05 12:15:00,46.5,15.9,29.97,East,88,4.0,5.0,29,0.00,,,0.00,Wunderground v.1.15,2013-03-05 17:15:00,
2013-03-05 12:20:00,46.7,15.3,29.97,NNE,19,1.0,3.0,28,0.00,,,0.00,Wunderground v.1.15,2013-03-05 17:20:00,
2013-03-05 12:25:00,47.0,17.9,29.96,ESE,117,2.0,6.0,31,0.00,,,0.00,Wunderground v.1.15,2013-03-05 17:25:00,
2013-03-05 12:30:00,47.3,16.6,29.96,East,84,3.0,6.0,29,0.00,,,0.00,Wunderground v.1.15,2013-03-05 17:30:00,
2013-03-05 12:35:00,47.3,14.1,29.96,NE,45,1.0,6.0,26,0.00,,,0.00,Wunderground v.1.15,2013-03-05 17:35:00,
2013-03-05 12:40:00,47.1,13.9,29.96,ENE,59,2.0,4.0,26,0.00,,,0.00,Wunderground v.1.15,2013-03-05 17:40:00,
2013-03-05 12:45:00,47.3,16.6,29.96,SE,128,3.0,7.0,29,0.00,,,0.00,Wunderground v.1.15,2013-03-05 17:45:00,
2013-03-05 12:50:00,47.6,16.9,29.95,SSE,148,1.0,3.0,29,0.00,,,0.00,Wunderground v.1.15,2013-03-05 17:50:00,
2013-03-05 12:55:00,47.7,15.3,29.95,ENE,61,4.0,4.0,27,0.00,,,0.00,Wunderground v.1.15,2013-03-05 17:55:00,
2013-03-05 13:00:00,47.7,15.3,29.95,NNE,32,2.0,5.0,27,0.00,,,0.00,Wunderground v.1.15,2013-03-05 18:00:00,
2013-03-05 13:05:00,47.9,17.9,29.95,ESE,123,4.0,7.0,30,0.00,,,0.00,Wunderground v.1.15,2013-03-05 18:05:00,
2013-03-05 13:10:00,48.2,16.6,29.94,NNE,16,3.0,3.0,28,0.00,,,0.00,Wunderground v.1.15,2013-03-05 18:10:00,
2013-03-05 13:15:00,48.2,15.7,29.94,NE,56,6.0,6.0,27,0.00,,,0.00,Wunderground v.1.15,2013-03-05 18:15:00,
2013-03-05 13:20:00,48.0,13.8,29.94,ENE,59,0.0,3.0,25,0.00,,,0.00,Wunderground v.1.15,2013-03-05 18:20:00,
2013-03-05 13:25:00,48.0,12.9,29.93,ENE,65,1.0,7.0,24,0.00,,,0.00,Wunderground v.1.15,2013-03-05 18:25:00,
2013-03-05 13:30:00,48.0,13.8,29.93,ENE,58,1.0,3.0,25,0.00,,,0.00,Wunderground v.1.15,2013-03-05 18:30:00,
2013-03-05 13:35:00,48.0,13.8,29.93,NE,34,2.0,5.0,25,0.00,,,0.00,Wunderground v.1.15,2013-03-05 18:35:00,
2013-03-05 13:40:00,48.3,16.7,29.92,SSE,148,2.0,3.0,28,0.00,,,0.00,Wunderground v.1.15,2013-03-05 18:40:00,
2013-03-05 13:45:00,48.8,17.9,29.92,ESE,123,3.0,6.0,29,0.00,,,0.00,Wunderground v.1.15,2013-03-05 18:45:00,
2013-03-05 13:50:00,49.1,18.2,29.92,East,81,1.0,2.0,29,0.00,,,0.00,Wunderground v.1.15,2013-03-05 18:50:00,
2013-03-05 13:56:00,49.1,14.7,29.91,NE,48,4.0,6.0,25,0.00,,,0.00,Wunderground v.1.15,2013-03-05 18:56:00,
2013-03-05 14:00:00,48.8,18.8,29.88,ENE,68,4.0,10.0,30,0.00,,---,0.00,VWS V14.01,2013-03-05 19:00:00,
2013-03-05 14:01:00,48.8,14.5,29.91,NNE,30,2.0,4.0,25,0.00,,,0.00,Wunderground v.1.15,2013-03-05 19:01:00,
2013-03-05 14:06:00,48.6,14.3,29.91,East,83,5.0,5.0,25,0.00,,,0.00,Wunderground v.1.15,2013-03-05 19:06:00,
2013-03-05 14:11:00,48.6,15.2,29.90,East,98,2.0,3.0,26,0.00,,,0.00,Wunderground v.1.15,2013-03-05 19:11:00,
2013-03-05 14:16:00,48.6,16.1,29.90,ENE,69,4.0,5.0,27,0.00,,,0.00,Wunderground v.1.15,2013-03-05 19:16:00,
2013-03-05 14:21:00,48.6,16.9,29.90,East,82,3.0,4.0,28,0.00,,,0.00,Wunderground v.1.15,2013-03-05 19:21:00,
2013-03-05 14:26:00,48.8,16.2,29.90,NE,53,6.0,13.0,27,0.00,,,0.00,Wunderground v.1.15,2013-03-05 19:26:00,
2013-03-05 14:30:00,48.6,18.6,29.87,ENE,68,5.0,13.0,30,0.00,,---,0.00,VWS V14.01,2013-03-05 19:30:00,
2013-03-05 14:31:00,48.5,17.6,29.89,ENE,64,3.0,7.0,29,0.00,,,0.00,Wunderground v.1.15,2013-03-05 19:31:00,
2013-03-05 14:36:00,48.5,18.4,29.88,ENE,75,5.0,7.0,30,0.00,,,0.00,Wunderground v.1.15,2013-03-05 19:36:00,
2013-03-05 14:41:00,48.6,16.9,29.88,SE,134,2.0,7.0,28,0.00,,,0.00,Wunderground v.1.15,2013-03-05 19:41:00,
2013-03-05 14:46:00,48.8,17.9,29.88,NE,51,3.0,10.0,29,0.00,,,0.00,Wunderground v.1.15,2013-03-05 19:46:00,
2013-03-05 14:51:00,48.8,17.9,29.87,ENE,65,4.0,9.0,29,0.00,,,0.00,Wunderground v.1.15,2013-03-05 19:51:00,
2013-03-05 14:56:00,48.9,17.2,29.87,NE,42,3.0,9.0,28,0.00,,,0.00,Wunderground v.1.15,2013-03-05 19:56:00,
2013-03-05 15:00:00,48.5,16.1,29.87,ENE,68,5.0,11.0,27,0.00,,---,0.00,VWS V14.01,2013-03-05 20:00:00,
2013-03-05 15:01:00,48.8,17.9,29.87,ENE,69,6.0,12.0,29,0.00,,,0.00,Wunderground v.1.15,2013-03-05 20:01:00,
2013-03-05 15:06:00,48.6,16.9,29.87,ESE,123,4.0,12.0,28,0.00,,,0.00,Wunderground v.1.15,2013-03-05 20:06:00,
2013-03-05 15:11:00,48.8,18.7,29.87,ESE,103,5.0,5.0,30,0.00,,,0.00,Wunderground v.1.15,2013-03-05 20:11:00,
2013-03-05 15:17:00,48.9,18.8,29.87,ENE,60,4.0,7.0,30,0.00,,,0.00,Wunderground v.1.15,2013-03-05 20:17:00,
2013-03-05 15:22:00,48.9,18.0,29.87,ENE,71,5.0,10.0,29,0.00,,,0.00,Wunderground v.1.15,2013-03-05 20:22:00,
2013-03-05 15:27:00,48.8,17.9,29.87,NE,43,4.0,10.0,29,0.00,,,0.00,Wunderground v.1.15,2013-03-05 20:27:00,
2013-03-05 15:30:00,47.3,15.9,29.87,NE,45,5.0,12.0,28,0.00,,---,0.00,VWS V14.01,2013-03-05 20:30:00,
2013-03-05 15:32:00,48.6,18.5,29.87,ENE,67,2.0,5.0,30,0.00,,,0.00,Wunderground v.1.15,2013-03-05 20:32:00,
2013-03-05 15:37:00,48.8,18.7,29.88,East,84,5.0,10.0,30,0.00,,,0.00,Wunderground v.1.15,2013-03-05 20:37:00,
2013-03-05 15:42:00,48.6,17.7,29.88,NE,50,3.0,9.0,29,0.00,,,0.00,Wunderground v.1.15,2013-03-05 20:42:00,
2013-03-05 15:47:00,48.5,17.6,29.87,ENE,63,7.0,9.0,29,0.00,,,0.00,Wunderground v.1.15,2013-03-05 20:47:00,
2013-03-05 15:52:00,48.5,19.2,29.87,ENE,69,3.0,6.0,31,0.00,,,0.00,Wunderground v.1.15,2013-03-05 20:52:00,
2013-03-05 15:57:00,48.6,19.3,29.88,NNE,28,6.0,10.0,31,0.00,,,0.00,Wunderground v.1.15,2013-03-05 20:57:00,
2013-03-05 16:00:00,47.0,17.2,29.86,ENE,68,4.0,10.0,30,0.00,,---,0.00,VWS V14.01,2013-03-05 21:00:00,
2013-03-05 16:03:00,48.2,17.4,29.88,ENE,74,5.0,11.0,29,0.00,,,0.00,Wunderground v.1.15,2013-03-05 21:03:00,
2013-03-05 16:08:00,47.9,17.9,29.87,NE,34,7.0,11.0,30,0.00,,,0.00,Wunderground v.1.15,2013-03-05 21:08:00,
2013-03-05 16:13:00,47.6,16.9,29.87,ENE,59,1.0,6.0,29,0.00,,,0.00,Wunderground v.1.15,2013-03-05 21:13:00,
2013-03-05 16:18:00,47.6,17.6,29.87,NE,54,4.0,9.0,30,0.00,,,0.00,Wunderground v.1.15,2013-03-05 21:18:00,
2013-03-05 16:23:00,47.4,16.7,29.87,ENE,61,11.0,11.0,29,0.00,,,0.00,Wunderground v.1.15,2013-03-05 21:23:00,
2013-03-05 16:28:00,47.4,15.9,29.87,ENE,74,6.0,12.0,28,0.00,,,0.00,Wunderground v.1.15,2013-03-05 21:28:00,
2013-03-05 16:30:00,46.5,17.5,29.86,SE,135,4.0,13.0,31,0.00,,---,0.00,VWS V14.01,2013-03-05 21:30:00,
2013-03-05 16:33:00,47.3,16.6,29.87,NE,51,3.0,7.0,29,0.00,,,0.00,Wunderground v.1.15,2013-03-05 21:33:00,
2013-03-05 16:39:00,47.3,16.6,29.86,ENE,71,4.0,7.0,29,0.00,,,0.00,Wunderground v.1.15,2013-03-05 21:39:00,
2013-03-05 16:44:00,47.1,16.4,29.86,ENE,73,7.0,10.0,29,0.00,,,0.00,Wunderground v.1.15,2013-03-05 21:44:00,
2013-03-05 16:49:00,47.1,16.4,29.86,NE,45,4.0,10.0,29,0.00,,,0.00,Wunderground v.1.15,2013-03-05 21:49:00,
2013-03-05 16:54:00,47.0,17.1,29.86,NE,34,3.0,6.0,30,0.00,,,0.00,Wunderground v.1.15,2013-03-05 21:54:00,
2013-03-05 16:59:00,47.0,17.1,29.86,NE,50,4.0,7.0,30,0.00,,,0.00,Wunderground v.1.15,2013-03-05 21:59:00,
2013-03-05 17:00:00,45.8,19.7,29.86,ESE,112,4.0,11.0,35,0.00,,---,0.00,VWS V14.01,2013-03-05 22:00:00,
2013-03-05 17:04:00,47.0,18.6,29.86,ESE,115,6.0,7.0,32,0.00,,,0.00,Wunderground v.1.15,2013-03-05 22:04:00,
2013-03-05 17:09:00,46.8,19.2,29.86,SE,136,6.0,7.0,33,0.00,,,0.00,Wunderground v.1.15,2013-03-05 22:09:00,
2013-03-05 17:14:00,46.8,18.5,29.86,SE,128,9.0,13.0,32,0.00,,,0.00,Wunderground v.1.15,2013-03-05 22:14:00,
2013-03-05 17:19:00,46.7,18.4,29.86,South,175,4.0,13.0,32,0.00,,,0.00,Wunderground v.1.15,2013-03-05 22:19:00,
2013-03-05 17:24:00,46.5,18.2,29.86,ESE,115,5.0,11.0,32,0.00,,,0.00,Wunderground v.1.15,2013-03-05 22:24:00,
2013-03-05 17:29:00,46.5,17.4,29.86,SSE,162,4.0,11.0,31,0.00,,,0.00,Wunderground v.1.15,2013-03-05 22:29:00,
2013-03-05 17:30:00,45.1,19.8,29.85,ESE,112,5.0,11.0,36,0.00,,---,0.00,VWS V14.01,2013-03-05 22:30:00,
2013-03-05 17:35:00,46.4,18.8,29.86,ESE,113,4.0,10.0,33,0.00,,,0.00,Wunderground v.1.15,2013-03-05 22:35:00,
2013-03-05 17:40:00,46.4,18.1,29.86,ESE,107,10.0,10.0,32,0.00,,,0.00,Wunderground v.1.15,2013-03-05 22:40:00,
2013-03-05 17:45:00,46.2,17.9,29.86,SE,128,5.0,10.0,32,0.00,,,0.00,Wunderground v.1.15,2013-03-05 22:45:00,
2013-03-05 17:50:00,46.1,19.2,29.86,SE,127,1.0,4.0,34,0.00,,,0.00,Wunderground v.1.15,2013-03-05 22:50:00,
2013-03-05 17:55:00,46.0,19.2,29.86,ESE,110,4.0,9.0,34,0.00,,,0.00,Wunderground v.1.15,2013-03-05 22:55:00,
2013-03-05 18:00:00,45.7,19.6,29.86,ESE,109,4.0,10.0,35,0.00,,,0.00,Wunderground v.1.15,2013-03-05 23:00:00,
2013-03-05 18:05:00,45.7,18.9,29.85,ESE,115,4.0,10.0,34,0.00,,,0.00,Wunderground v.1.15,2013-03-05 23:05:00,
2013-03-05 18:10:00,45.5,19.4,29.85,ESE,111,6.0,10.0,35,0.00,,,0.00,Wunderground v.1.15,2013-03-05 23:10:00,
2013-03-05 18:15:00,45.4,20.0,29.85,ESE,111,7.0,10.0,36,0.00,,,0.00,Wunderground v.1.15,2013-03-05 23:15:00,
2013-03-05 18:20:00,45.2,19.1,29.85,ESE,120,6.0,7.0,35,0.00,,,0.00,Wunderground v.1.15,2013-03-05 23:20:00,
2013-03-05 18:25:00,45.2,19.8,29.85,East,81,3.0,7.0,36,0.00,,,0.00,Wunderground v.1.15,2013-03-05 23:25:00,
2013-03-05 18:30:00,44.1,19.5,29.85,ESE,112,5.0,13.0,37,0.00,,---,0.00,VWS V14.01,2013-03-05 23:30:00,
2013-03-05 18:31:00,45.1,19.7,29.85,SE,125,5.0,7.0,36,0.00,,,0.00,Wunderground v.1.15,2013-03-05 23:31:00,
2013-03-05 18:36:00,44.9,19.5,29.85,ENE,76,4.0,7.0,36,0.00,,,0.00,Wunderground v.1.15,2013-03-05 23:36:00,
2013-03-05 18:41:00,44.9,19.5,29.85,ESE,107,4.0,6.0,36,0.00,,,0.00,Wunderground v.1.15,2013-03-05 23:41:00,
2013-03-05 18:46:00,44.9,19.5,29.85,SE,139,4.0,9.0,36,0.00,,,0.00,Wunderground v.1.15,2013-03-05 23:46:00,
2013-03-05 18:51:00,44.8,18.8,29.85,East,84,6.0,9.0,35,0.00,,,0.00,Wunderground v.1.15,2013-03-05 23:51:00,
2013-03-05 18:56:00,44.8,19.4,29.85,ESE,116,3.0,12.0,36,0.00,,,0.00,Wunderground v.1.15,2013-03-05 23:56:00,
2013-03-05 19:00:00,43.5,19.6,29.83,ESE,112,4.0,11.0,38,0.00,,---,0.00,VWS V14.01,2013-03-06 00:00:00,
2013-03-05 19:01:00,44.6,19.3,29.84,SE,144,9.0,12.0,36,0.00,,,0.00,Wunderground v.1.15,2013-03-06 00:01:00,
2013-03-05 19:06:00,44.5,19.2,29.84,ESE,123,5.0,12.0,36,0.00,,,0.00,Wunderground v.1.15,2013-03-06 00:06:00,
2013-03-05 19:11:00,44.5,19.8,29.85,South,190,3.0,7.0,37,0.00,,,0.00,Wunderground v.1.15,2013-03-06 00:11:00,
2013-03-05 19:16:00,44.3,19.0,29.85,ESE,109,2.0,8.0,36,0.00,,,0.00,Wunderground v.1.15,2013-03-06 00:16:00,
2013-03-05 19:21:00,44.2,19.5,29.85,SE,131,9.0,10.0,37,0.00,,,0.00,Wunderground v.1.15,2013-03-06 00:21:00,
2013-03-05 19:26:00,44.1,20.7,29.85,SE,131,2.0,10.0,39,0.00,,,0.00,Wunderground v.1.15,2013-03-06 00:26:00,
2013-03-05 19:30:00,43.1,19.2,29.81,ESE,112,4.0,10.0,38,0.00,,---,0.00,VWS V14.01,2013-03-06 00:30:00,
2013-03-05 19:31:00,44.1,19.5,29.85,ESE,103,4.0,5.0,37,0.00,,,0.00,Wunderground v.1.15,2013-03-06 00:31:00,
2013-03-05 19:36:00,43.9,19.3,29.85,ESE,111,5.0,6.0,37,0.00,,,0.00,Wunderground v.1.15,2013-03-06 00:36:00,
2013-03-05 19:41:00,43.8,19.8,29.85,ESE,115,5.0,10.0,38,0.00,,,0.00,Wunderground v.1.15,2013-03-06 00:41:00,
2013-03-05 19:46:00,43.8,19.8,29.84,ESE,103,5.0,10.0,38,0.00,,,0.00,Wunderground v.1.15,2013-03-06 00:46:00,
2013-03-05 19:51:00,43.6,19.6,29.84,ESE,104,3.0,10.0,38,0.00,,,0.00,Wunderground v.1.15,2013-03-06 00:51:00,
2013-03-05 19:56:00,43.5,18.9,29.83,NE,34,5.0,10.0,37,0.00,,,0.00,Wunderground v.1.15,2013-03-06 00:56:00,
2013-03-05 20:00:00,42.6,22.2,29.80,ESE,112,6.0,16.0,44,0.00,,---,0.00,VWS V14.01,2013-03-06 01:00:00,
2013-03-05 20:01:00,43.5,19.5,29.83,SSW,202,3.0,9.0,38,0.00,,,0.00,Wunderground v.1.15,2013-03-06 01:01:00,
2013-03-05 20:06:00,43.3,18.7,29.83,SE,130,4.0,9.0,37,0.00,,,0.00,Wunderground v.1.15,2013-03-06 01:06:00,
2013-03-05 20:11:00,43.3,19.4,29.82,ESE,121,6.0,8.0,38,0.00,,,0.00,Wunderground v.1.15,2013-03-06 01:11:00,
2013-03-05 20:16:00,43.3,19.4,29.82,East,80,4.0,8.0,38,0.00,,,0.00,Wunderground v.1.15,2013-03-06 01:16:00,
2013-03-05 20:22:00,43.2,19.3,29.82,SE,130,2.0,10.0,38,0.00,,,0.00,Wunderground v.1.15,2013-03-06 01:22:00,
2013-03-05 20:27:00,43.1,19.2,29.81,ESE,121,5.0,10.0,38,0.00,,,0.00,Wunderground v.1.15,2013-03-06 01:27:00,
2013-03-05 20:30:00,41.2,24.5,29.81,ESE,112,9.0,19.0,51,0.00,,---,0.00,VWS V14.01,2013-03-06 01:30:00,
2013-03-05 20:32:00,43.1,19.2,29.81,ESE,105,3.0,7.0,38,0.00,,,0.00,Wunderground v.1.15,2013-03-06 01:32:00,
2013-03-05 20:37:00,42.9,19.6,29.81,ESE,107,5.0,10.0,39,0.00,,,0.00,Wunderground v.1.15,2013-03-06 01:37:00,
2013-03-05 20:42:00,42.9,19.0,29.81,NNW,333,3.0,9.0,38,0.00,,,0.00,Wunderground v.1.15,2013-03-06 01:42:00,
2013-03-05 20:47:00,42.8,19.5,29.80,East,98,6.0,13.0,39,0.00,,,0.00,Wunderground v.1.15,2013-03-06 01:47:00,
2013-03-05 20:52:00,42.8,21.3,29.80,SE,127,13.0,16.0,42,0.00,,,0.00,Wunderground v.1.15,2013-03-06 01:52:00,
2013-03-05 20:57:00,42.6,21.6,29.80,ESE,114,9.0,16.0,43,0.00,,,0.00,Wunderground v.1.15,2013-03-06 01:57:00,
2013-03-05 21:00:00,38.9,28.1,29.82,ESE,112,8.0,19.0,65,0.00,,---,0.00,VWS V14.01,2013-03-06 02:00:00,
2013-03-05 21:02:00,42.5,21.5,29.80,ESE,121,9.0,12.0,43,0.00,,,0.00,Wunderground v.1.15,2013-03-06 02:02:00,
2013-03-05 21:07:00,42.3,21.9,29.80,East,82,12.0,18.0,44,0.00,,,0.00,Wunderground v.1.15,2013-03-06 02:07:00,
2013-03-05 21:12:00,42.2,22.4,29.80,ENE,78,9.0,11.0,45,0.00,,,0.00,Wunderground v.1.15,2013-03-06 02:12:00,
2013-03-05 21:17:00,42.1,22.3,29.80,SE,136,8.0,13.0,45,0.00,,,0.00,Wunderground v.1.15,2013-03-06 02:17:00,
2013-03-05 21:23:00,41.8,23.0,29.80,WNW,300,6.0,14.0,47,0.00,,,0.00,Wunderground v.1.15,2013-03-06 02:23:00,
2013-03-05 21:28:00,41.3,24.0,29.81,SE,128,13.0,16.0,50,0.00,,,0.00,Wunderground v.1.15,2013-03-06 02:28:00,
2013-03-05 21:30:00,35.9,30.6,29.80,ESE,112,5.0,15.0,81,0.00,,---,0.00,VWS V14.01,2013-03-06 02:30:00,
2013-03-05 21:33:00,40.9,25.5,29.81,SE,138,12.0,16.0,54,0.00,,,0.00,Wunderground v.1.15,2013-03-06 02:33:00,
2013-03-05 21:38:00,40.3,25.8,29.82,SE,126,13.0,16.0,56,0.00,,,0.00,Wunderground v.1.15,2013-03-06 02:38:00,
2013-03-05 21:44:00,39.9,26.3,29.82,ESE,105,3.0,13.0,58,0.00,,,0.00,Wunderground v.1.15,2013-03-06 02:44:00,
2013-03-05 21:49:00,39.6,26.8,29.82,SE,132,4.0,16.0,60,0.00,,,0.00,Wunderground v.1.15,2013-03-06 02:49:00,
2013-03-05 21:54:00,39.3,27.7,29.82,SE,138,7.0,13.0,63,0.00,,,0.00,Wunderground v.1.15,2013-03-06 02:54:00,
2013-03-05 21:59:00,38.9,28.1,29.82,ESE,105,12.0,13.0,65,0.00,,,0.00,Wunderground v.1.15,2013-03-06 02:59:00,
2013-03-05 22:00:00,34.0,30.8,29.80,ESE,112,2.0,9.0,88,0.00,,---,0.00,VWS V14.01,2013-03-06 03:00:00,
2013-03-05 22:04:00,38.3,28.3,29.81,ESE,114,5.0,16.0,67,0.00,,,0.00,Wunderground v.1.15,2013-03-06 03:04:00,
2013-03-05 22:09:00,38.0,29.4,29.81,East,89,2.0,16.0,71,0.00,,,0.00,Wunderground v.1.15,2013-03-06 03:09:00,
2013-03-05 22:14:00,37.5,29.6,29.81,ENE,75,5.0,12.0,73,0.00,,,0.00,Wunderground v.1.15,2013-03-06 03:14:00,
2013-03-05 22:19:00,37.0,30.1,29.81,SE,130,2.0,12.0,76,0.00,,,0.00,Wunderground v.1.15,2013-03-06 03:19:00,
2013-03-05 22:25:00,36.5,30.6,29.80,ESE,105,5.0,11.0,79,0.00,,,0.00,Wunderground v.1.15,2013-03-06 03:25:00,
2013-03-05 22:30:00,35.9,30.6,29.80,ESE,116,1.0,5.0,81,0.00,,,0.00,Wunderground v.1.15,2013-03-06 03:30:00,
2013-03-05 22:35:00,35.3,30.7,29.80,East,98,3.0,7.0,83,0.00,,,0.00,Wunderground v.1.15,2013-03-06 03:35:00,
2013-03-05 22:40:00,34.9,30.8,29.80,ESE,110,2.0,4.0,85,0.00,,,0.00,Wunderground v.1.15,2013-03-06 03:40:00,
2013-03-05 22:45:00,34.6,30.8,29.80,East,100,0.0,4.0,86,0.00,,,0.00,Wunderground v.1.15,2013-03-06 03:45:00,
2013-03-05 22:50:00,34.4,30.9,29.80,ESE,117,1.0,2.0,87,0.00,,,0.00,Wunderground v.1.15,2013-03-06 03:50:00,
2013-03-05 22:55:00,34.1,30.9,29.80,ESE,121,1.0,2.0,88,0.00,,,0.00,Wunderground v.1.15,2013-03-06 03:55:00,
2013-03-05 23:00:00,34.0,31.1,29.79,ENE,62,4.0,6.0,89,0.00,,,0.00,Wunderground v.1.15,2013-03-06 04:00:00,
2013-03-05 23:06:00,33.7,31.1,29.79,SE,127,2.0,6.0,90,0.00,,,0.00,Wunderground v.1.15,2013-03-06 04:06:00,
2013-03-05 23:11:00,33.5,31.2,29.79,East,83,1.0,4.0,91,0.00,,,0.00,Wunderground v.1.15,2013-03-06 04:11:00,
2013-03-05 23:16:00,33.4,31.3,29.79,ENE,63,2.0,5.0,92,0.00,,,0.00,Wunderground v.1.15,2013-03-06 04:16:00,
2013-03-05 23:21:00,33.2,31.1,29.78,ENE,68,1.0,4.0,92,0.00,,,0.00,Wunderground v.1.15,2013-03-06 04:21:00,
2013-03-05 23:26:00,33.1,31.3,29.78,ENE,58,3.0,5.0,93,0.00,,,0.00,Wunderground v.1.15,2013-03-06 04:26:00,
2013-03-05 23:30:00,32.2,31.2,29.75,ENE,68,3.0,7.0,96,0.00,,---,0.00,VWS V14.01,2013-03-06 04:30:00,
2013-03-05 23:31:00,33.1,31.3,29.78,ESE,121,3.0,3.0,93,0.00,,,0.00,Wunderground v.1.15,2013-03-06 04:31:00,
2013-03-05 23:36:00,32.9,31.4,29.78,ESE,116,5.0,5.0,94,0.00,,,0.00,Wunderground v.1.15,2013-03-06 04:36:00,
2013-03-05 23:41:00,32.9,31.4,29.77,ENE,76,4.0,5.0,94,0.00,,,0.00,Wunderground v.1.15,2013-03-06 04:41:00,
2013-03-05 23:46:00,32.8,31.3,29.77,ENE,74,3.0,7.0,94,0.00,,,0.00,Wunderground v.1.15,2013-03-06 04:46:00,
2013-03-05 23:51:00,32.7,31.4,29.77,East,83,0.0,5.0,95,0.00,,,0.00,Wunderground v.1.15,2013-03-06 04:51:00,
2013-03-05 23:57:00,32.7,31.4,29.76,NE,51,1.0,5.0,95,0.00,,,0.00,Wunderground v.1.15,2013-03-06 04:57:00,